Time;durP1;ratioP1;P1;durP2;ratioP2;P2;SDS_P1;SDS_P2;PMS_P1;PMS_P2;Temp;Humidity;BMP_temperature;BMP_pressure;BME280_temperature;BME280_humidity;BME280_pressure;Samples;Min_cycle;Max_cycle;Signal;HPM_P1;HPM_P2
2024/02/17 00:02:02;;;;;;;13.17;10.77;;;20.10;63.20;;;;;;4972186;28;20536;-59
2024/02/17 00:04:27;;;;;;;11.10;10.07;;;20.10;63.00;;;;;;4969829;28;20191;-60
2024/02/17 00:06:53;;;;;;;12.03;11.00;;;20.10;63.10;;;;;;4968869;28;20458;-59
2024/02/17 00:09:19;;;;;;;10.27;9.37;;;20.10;63.10;;;;;;4970270;28;20195;-59
2024/02/17 00:11:44;;;;;;;11.90;10.70;;;20.10;63.00;;;;;;4969525;28;20415;-60
2024/02/17 00:14:10;;;;;;;11.17;10.07;;;20.10;62.90;;;;;;4969442;28;20194;-60
2024/02/17 00:16:35;;;;;;;9.80;8.80;;;20.10;62.80;;;;;;4971147;28;20215;-59
2024/02/17 00:19:01;;;;;;;11.53;10.40;;;20.10;62.80;;;;;;4971162;28;20187;-59
2024/02/17 00:21:27;;;;;;;11.50;10.30;;;20.20;62.80;;;;;;4971117;28;20237;-59
2024/02/17 00:23:52;;;;;;;10.40;9.20;;;20.20;62.50;;;;;;4976568;28;20194;-61
2024/02/17 00:26:18;;;;;;;10.50;9.50;;;20.20;62.30;;;;;;4969965;28;20211;-61
2024/02/17 00:28:43;;;;;;;10.80;9.80;;;20.20;62.50;;;;;;4970105;28;20191;-60
2024/02/17 00:31:09;;;;;;;11.43;9.73;;;20.10;62.30;;;;;;4971305;28;20734;-60
2024/02/17 00:33:37;;;;;;;10.93;9.90;;;20.00;62.60;;;;;;4970649;28;20183;-61
2024/02/17 00:36:03;;;;;;;12.93;11.27;;;20.00;63.20;;;;;;4969884;28;20261;-61
2024/02/17 00:38:29;;;;;;;10.93;9.87;;;19.90;63.40;;;;;;4968630;28;20434;-60
2024/02/17 00:40:56;;;;;;;11.97;10.30;;;19.80;63.70;;;;;;4970252;28;21037;-60
2024/02/17 00:43:22;;;;;;;11.13;10.00;;;19.80;63.90;;;;;;4979908;28;20211;-61
2024/02/17 00:45:48;;;;;;;11.50;10.37;;;19.80;63.90;;;;;;4970478;28;20517;-60
2024/02/17 00:48:14;;;;;;;12.60;11.40;;;19.80;64.10;;;;;;4969841;28;20211;-61
2024/02/17 00:50:40;;;;;;;10.33;9.23;;;19.70;64.30;;;;;;4969604;28;20944;-60
2024/02/17 00:53:06;;;;;;;12.27;10.77;;;19.70;64.50;;;;;;4968433;28;20529;-60
2024/02/17 00:55:31;;;;;;;11.17;10.00;;;19.70;64.80;;;;;;4969153;28;20200;-60
2024/02/17 00:57:57;;;;;;;11.20;10.17;;;19.70;65.00;;;;;;4967900;28;20188;-60
2024/02/17 01:00:22;;;;;;;11.03;10.03;;;19.70;64.90;;;;;;4968450;28;20741;-60
2024/02/17 01:02:48;;;;;;;9.63;8.73;;;19.70;64.90;;;;;;4972025;28;20278;-61
2024/02/17 01:05:13;;;;;;;11.07;10.07;;;19.80;64.80;;;;;;4976348;28;20274;-60
2024/02/17 01:07:39;;;;;;;10.33;9.40;;;19.80;64.60;;;;;;4971985;28;20207;-61
2024/02/17 01:10:05;;;;;;;10.13;9.17;;;19.90;64.50;;;;;;4975242;28;20670;-61
2024/02/17 01:12:30;;;;;;;12.80;9.00;;;19.80;64.40;;;;;;4966840;28;20623;-61
2024/02/17 01:14:56;;;;;;;9.70;8.67;;;19.80;64.60;;;;;;4973293;28;20476;-60
2024/02/17 01:17:22;;;;;;;10.77;9.17;;;19.80;64.80;;;;;;4970370;28;20227;-59
2024/02/17 01:19:47;;;;;;;11.53;9.13;;;19.80;64.80;;;;;;4975181;28;20184;-61
2024/02/17 01:22:13;;;;;;;9.77;8.77;;;19.80;64.80;;;;;;4972477;28;20235;-61
2024/02/17 01:24:40;;;;;;;10.40;9.03;;;19.90;64.60;;;;;;4999139;28;20184;-60
2024/02/17 01:27:08;;;;;;;9.13;7.73;;;19.90;64.50;;;;;;4969966;28;20199;-60
2024/02/17 01:29:34;;;;;;;9.33;7.90;;;19.80;64.60;;;;;;4971283;28;20816;-60
2024/02/17 01:32:00;;;;;;;10.93;9.13;;;19.80;64.80;;;;;;4980423;28;20457;-60
2024/02/17 01:34:25;;;;;;;9.20;8.40;;;19.90;64.80;;;;;;4977504;28;20439;-61
2024/02/17 01:36:51;;;;;;;9.10;8.23;;;19.90;64.80;;;;;;4969936;28;20290;-60
2024/02/17 01:39:16;;;;;;;11.83;8.97;;;19.90;64.70;;;;;;4972939;28;20690;-61
2024/02/17 01:41:42;;;;;;;9.07;8.23;;;20.00;64.60;;;;;;4967617;28;20207;-60
2024/02/17 01:44:08;;;;;;;11.30;9.63;;;20.00;64.30;;;;;;4968007;28;20191;-61
2024/02/17 01:46:33;;;;;;;10.57;9.47;;;20.00;64.20;;;;;;4968312;28;20211;-61
2024/02/17 01:48:59;;;;;;;9.60;8.70;;;20.00;64.20;;;;;;4968172;28;20180;-60
2024/02/17 01:51:26;;;;;;;11.47;8.53;;;20.00;64.10;;;;;;4974741;28;20240;-61
2024/02/17 01:53:52;;;;;;;9.77;8.27;;;20.10;64.20;;;;;;4968870;28;20625;-60
2024/02/17 01:56:20;;;;;;;12.63;8.70;;;20.00;64.00;;;;;;4981194;28;20477;-60
2024/02/17 01:58:47;;;;;;;10.30;9.27;;;20.00;64.10;;;;;;4969601;28;20454;-61
2024/02/17 02:01:14;;;;;;;10.03;8.67;;;20.00;64.20;;;;;;4971780;28;20850;-60
2024/02/17 02:03:39;;;;;;;10.20;9.20;;;20.00;64.10;;;;;;4969188;28;20456;-61
2024/02/17 02:06:05;;;;;;;9.50;8.60;;;20.10;64.20;;;;;;4978108;28;20439;-60
2024/02/17 02:08:31;;;;;;;8.90;8.17;;;20.10;64.00;;;;;;4968582;28;20192;-60
2024/02/17 02:11:00;;;;;;;9.60;8.60;;;20.10;63.80;;;;;;4971758;28;20480;-59
2024/02/17 02:13:26;;;;;;;9.53;8.63;;;20.10;63.80;;;;;;4962560;28;20434;-61
2024/02/17 02:15:52;;;;;;;10.00;9.10;;;20.10;63.80;;;;;;4970385;28;20458;-60
2024/02/17 02:18:18;;;;;;;7.37;6.30;;;20.10;64.00;;;;;;4970728;28;20761;-60
2024/02/17 02:20:44;;;;;;;10.30;7.47;;;20.00;64.10;;;;;;4969635;28;20222;-60
2024/02/17 02:23:09;;;;;;;8.13;5.90;;;20.00;64.60;;;;;;4971938;28;20423;-60
2024/02/17 02:25:36;;;;;;;8.03;5.77;;;20.00;64.40;;;;;;4967578;28;20194;-60
2024/02/17 02:28:02;;;;;;;6.10;5.50;;;19.90;64.30;;;;;;4990386;28;20274;-60
2024/02/17 02:30:28;;;;;;;5.30;4.40;;;19.80;64.50;;;;;;4972843;28;20579;-61
2024/02/17 02:32:58;;;;;;;4.40;4.00;;;19.70;64.90;;;;;;4974051;28;20729;-61
2024/02/17 02:35:23;;;;;;;3.20;3.00;;;19.60;64.90;;;;;;4984569;28;20585;-60
2024/02/17 02:37:49;;;;;;;3.73;2.63;;;19.40;65.20;;;;;;4967194;28;20516;-60
2024/02/17 02:40:15;;;;;;;2.80;2.60;;;19.20;65.30;;;;;;4971400;28;20236;-60
2024/02/17 02:42:40;;;;;;;3.23;2.93;;;19.10;66.00;;;;;;4968121;28;20211;-61
2024/02/17 02:45:06;;;;;;;3.13;2.83;;;18.90;66.30;;;;;;4970190;28;20191;-60
2024/02/17 02:47:32;;;;;;;3.70;3.40;;;18.80;66.70;;;;;;4968534;28;20200;-61
2024/02/17 02:49:59;;;;;;;3.27;2.97;;;18.60;67.20;;;;;;4970478;28;20179;-60
2024/02/17 02:52:25;;;;;;;3.13;2.93;;;18.70;67.30;;;;;;4966316;28;20451;-60
2024/02/17 02:54:51;;;;;;;4.23;3.93;;;18.60;67.30;;;;;;4967855;28;21189;-61
2024/02/17 02:57:16;;;;;;;4.50;4.10;;;18.30;67.70;;;;;;4966631;28;21024;-61
2024/02/17 02:59:42;;;;;;;5.20;4.37;;;18.10;68.70;;;;;;4967999;28;20186;-61
2024/02/17 03:02:08;;;;;;;4.30;3.90;;;18.00;69.00;;;;;;4967380;28;20210;-61
2024/02/17 03:04:33;;;;;;;5.13;4.63;;;18.00;69.30;;;;;;4966897;28;20651;-60
2024/02/17 03:06:59;;;;;;;4.53;4.13;;;18.10;69.10;;;;;;4965960;28;20222;-61
2024/02/17 03:09:24;;;;;;;6.50;5.50;;;18.20;68.50;;;;;;4977200;28;20198;-61
2024/02/17 03:11:50;;;;;;;5.77;4.77;;;18.10;68.30;;;;;;4967376;28;20198;-60
2024/02/17 03:14:16;;;;;;;5.80;5.20;;;18.10;68.30;;;;;;4967723;28;20566;-61
2024/02/17 03:16:41;;;;;;;5.53;5.07;;;18.20;68.20;;;;;;4967162;28;20290;-59
2024/02/17 03:19:07;;;;;;;5.77;5.27;;;18.20;68.40;;;;;;4968211;28;20832;-60
2024/02/17 03:21:33;;;;;;;6.70;6.00;;;18.10;68.20;;;;;;4967458;28;20707;-60
2024/02/17 03:23:59;;;;;;;7.03;5.43;;;18.00;68.40;;;;;;4968520;28;20226;-60
2024/02/17 03:26:25;;;;;;;6.13;5.53;;;17.90;68.90;;;;;;4971102;28;20474;-60
2024/02/17 03:28:50;;;;;;;6.07;5.50;;;17.90;69.00;;;;;;4972796;28;20642;-61
2024/02/17 03:31:16;;;;;;;8.97;6.57;;;17.70;69.10;;;;;;4973164;28;20225;-60
2024/02/17 03:33:41;;;;;;;7.37;6.67;;;17.80;69.50;;;;;;4970228;28;20266;-60
2024/02/17 03:36:07;;;;;;;7.30;6.57;;;17.90;69.00;;;;;;4971932;28;20742;-60
2024/02/17 03:38:33;;;;;;;9.33;6.13;;;18.00;69.00;;;;;;4970121;28;20183;-60
2024/02/17 03:40:58;;;;;;;7.33;6.63;;;18.20;68.30;;;;;;4969856;28;20242;-61
2024/02/17 03:43:25;;;;;;;7.13;6.27;;;18.30;67.70;;;;;;4971286;28;20191;-60
2024/02/17 03:45:51;;;;;;;7.40;6.43;;;18.30;67.20;;;;;;4971021;28;20265;-60
2024/02/17 03:48:16;;;;;;;7.97;7.03;;;18.40;67.30;;;;;;4970408;28;20450;-60
2024/02/17 03:50:42;;;;;;;8.00;7.17;;;18.40;67.20;;;;;;4971938;28;20477;-60
2024/02/17 03:53:08;;;;;;;7.90;7.20;;;18.30;67.30;;;;;;4970208;28;20647;-60
2024/02/17 03:55:33;;;;;;;7.80;7.10;;;18.40;67.00;;;;;;4971939;28;20244;-58
2024/02/17 03:57:59;;;;;;;7.80;7.00;;;18.50;66.90;;;;;;4977878;28;20678;-58
2024/02/17 04:00:25;;;;;;;12.00;7.60;;;18.60;66.60;;;;;;4969757;28;20610;-60
2024/02/17 04:02:50;;;;;;;7.70;6.87;;;18.70;66.30;;;;;;4969160;28;20903;-60
2024/02/17 04:05:16;;;;;;;8.40;7.17;;;18.70;65.80;;;;;;4962557;28;20702;-60
2024/02/17 04:07:42;;;;;;;8.30;7.27;;;18.70;65.50;;;;;;4967580;28;20212;-59
2024/02/17 04:10:08;;;;;;;9.23;8.33;;;18.70;65.90;;;;;;4973181;28;20876;-58
2024/02/17 04:12:39;;;;;;;9.10;8.20;;;18.70;65.80;;;;;;4973066;28;21324;-59
2024/02/17 04:15:06;;;;;;;7.20;6.23;;;18.70;65.80;;;;;;4977512;28;20933;-60
2024/02/17 04:17:31;;;;;;;10.33;7.77;;;18.70;65.50;;;;;;4969164;28;20953;-60
2024/02/17 04:19:57;;;;;;;12.30;9.90;;;18.80;65.40;;;;;;4990959;28;20493;-60
2024/02/17 04:22:24;;;;;;;11.13;10.03;;;18.80;64.90;;;;;;4991833;28;20207;-59
2024/02/17 04:24:50;;;;;;;10.63;9.30;;;18.80;64.80;;;;;;4970269;28;20191;-60
2024/02/17 04:27:15;;;;;;;12.07;10.67;;;18.80;65.10;;;;;;4974895;28;20454;-61
2024/02/17 04:29:41;;;;;;;11.03;9.67;;;18.80;65.10;;;;;;4969820;28;20191;-60
2024/02/17 04:32:07;;;;;;;11.20;10.10;;;18.80;64.70;;;;;;4974270;28;20184;-60
2024/02/17 04:34:33;;;;;;;11.03;9.93;;;18.90;64.50;;;;;;4989620;28;20309;-59
2024/02/17 04:36:58;;;;;;;11.20;9.50;;;19.00;64.30;;;;;;4968977;28;21125;-60
2024/02/17 04:39:24;;;;;;;11.20;10.10;;;19.00;64.00;;;;;;4968951;28;20685;-60
2024/02/17 04:41:49;;;;;;;12.00;10.47;;;19.10;63.90;;;;;;4969217;28;20687;-59
2024/02/17 04:44:15;;;;;;;14.43;10.13;;;19.10;63.60;;;;;;4969183;28;20231;-60
2024/02/17 04:46:40;;;;;;;10.60;9.37;;;19.10;63.30;;;;;;4968757;28;20304;-59
2024/02/17 04:49:06;;;;;;;10.90;9.67;;;19.20;63.20;;;;;;4972500;28;20175;-60
2024/02/17 04:51:32;;;;;;;10.00;9.00;;;19.20;63.00;;;;;;4967714;28;20671;-60
2024/02/17 04:53:57;;;;;;;10.03;9.03;;;19.20;62.80;;;;;;4968810;28;20191;-59
2024/02/17 04:56:23;;;;;;;11.00;9.90;;;19.20;63.00;;;;;;4968909;28;20298;-60
2024/02/17 04:58:48;;;;;;;11.87;10.40;;;19.10;62.90;;;;;;4968627;28;20300;-61
2024/02/17 05:01:14;;;;;;;10.70;9.60;;;19.10;62.80;;;;;;4968797;28;20226;-59
2024/02/17 05:03:39;;;;;;;11.87;10.57;;;19.10;62.80;;;;;;4973147;28;20188;-60
2024/02/17 05:06:05;;;;;;;12.07;10.30;;;19.20;62.70;;;;;;4974003;28;20256;-60
2024/02/17 05:08:31;;;;;;;11.30;10.03;;;19.20;62.50;;;;;;4969050;28;20191;-59
2024/02/17 05:10:57;;;;;;;13.33;11.23;;;19.20;62.50;;;;;;4971264;28;20196;-60
2024/02/17 05:13:23;;;;;;;15.13;12.67;;;19.20;62.20;;;;;;4969171;28;20236;-59
2024/02/17 05:15:49;;;;;;;13.47;11.73;;;19.20;62.00;;;;;;4980362;28;20970;-61
2024/02/17 05:18:14;;;;;;;13.37;12.00;;;19.20;62.10;;;;;;4967818;28;20215;-60
2024/02/17 05:20:40;;;;;;;15.40;11.60;;;19.10;61.90;;;;;;4973781;28;20434;-60
2024/02/17 05:23:06;;;;;;;14.73;12.70;;;19.10;62.20;;;;;;4969479;28;20193;-60
2024/02/17 05:25:32;;;;;;;13.63;11.90;;;19.10;62.20;;;;;;4970044;28;20674;-61
2024/02/17 05:27:58;;;;;;;15.37;12.93;;;19.00;62.30;;;;;;4967983;28;20579;-59
2024/02/17 05:30:23;;;;;;;14.47;12.47;;;19.00;62.40;;;;;;4969216;28;20187;-59
2024/02/17 05:32:49;;;;;;;14.63;12.83;;;18.90;62.40;;;;;;4968159;28;20496;-59
2024/02/17 05:35:15;;;;;;;13.53;12.20;;;18.90;62.50;;;;;;4968714;28;21027;-59
2024/02/17 05:37:40;;;;;;;14.67;13.17;;;18.90;62.80;;;;;;4966621;28;20260;-60
2024/02/17 05:40:07;;;;;;;15.70;13.90;;;18.80;62.70;;;;;;4968188;28;20606;-60
2024/02/17 05:42:34;;;;;;;14.00;12.50;;;18.80;62.60;;;;;;4968054;28;20207;-59
2024/02/17 05:45:02;;;;;;;16.60;14.90;;;18.90;62.50;;;;;;4968656;28;20480;-59
2024/02/17 05:47:28;;;;;;;17.80;14.00;;;18.90;62.40;;;;;;4966753;28;20870;-60
2024/02/17 05:49:53;;;;;;;15.30;13.73;;;18.90;63.00;;;;;;4968744;28;20426;-59
2024/02/17 05:52:19;;;;;;;16.40;14.67;;;18.90;62.20;;;;;;4964340;28;20634;-60
2024/02/17 05:54:45;;;;;;;15.87;14.17;;;18.90;62.20;;;;;;4968527;28;20898;-60
2024/02/17 05:57:11;;;;;;;19.10;14.67;;;18.90;62.00;;;;;;4967506;28;20215;-59
2024/02/17 05:59:37;;;;;;;19.30;14.30;;;18.80;61.90;;;;;;4969675;28;20420;-60
2024/02/17 06:02:03;;;;;;;18.93;15.37;;;18.80;62.20;;;;;;4968490;28;20211;-60
2024/02/17 06:04:29;;;;;;;17.93;14.50;;;18.70;62.00;;;;;;4968992;28;20266;-59
2024/02/17 06:06:55;;;;;;;17.20;14.37;;;18.70;62.00;;;;;;4967434;28;20211;-59
2024/02/17 06:09:21;;;;;;;18.70;15.40;;;18.70;61.80;;;;;;4969563;28;20458;-60
2024/02/17 06:11:49;;;;;;;20.70;16.53;;;18.70;61.70;;;;;;4969178;28;20266;-60
2024/02/17 06:14:15;;;;;;;18.13;14.93;;;18.70;61.70;;;;;;4968777;28;20202;-61
2024/02/17 06:16:41;;;;;;;18.37;14.10;;;18.70;61.60;;;;;;4970315;28;20528;-59
2024/02/17 06:21:51;;;;;;;16.87;14.33;;;18.70;61.10;;;;;;4970226;28;20500;-61
2024/02/17 06:24:17;;;;;;;19.40;15.10;;;18.70;61.00;;;;;;4967597;28;20513;-60
2024/02/17 06:26:43;;;;;;;18.60;15.33;;;18.70;61.30;;;;;;4967065;28;20294;-60
2024/02/17 06:29:09;;;;;;;17.57;14.57;;;18.70;61.30;;;;;;4968208;28;20542;-59
2024/02/17 06:31:35;;;;;;;18.80;14.93;;;18.70;61.10;;;;;;4964138;28;20183;-61
2024/02/17 06:34:00;;;;;;;16.67;14.17;;;18.60;60.90;;;;;;4967386;28;20825;-59
2024/02/17 06:36:26;;;;;;;17.17;13.67;;;18.70;61.10;;;;;;4966334;28;20210;-59
2024/02/17 06:38:52;;;;;;;17.93;14.47;;;18.70;61.00;;;;;;4976022;28;20183;-60
2024/02/17 06:41:19;;;;;;;17.63;14.20;;;18.70;61.00;;;;;;4967944;28;20921;-60
2024/02/17 06:43:45;;;;;;;19.90;15.33;;;18.70;61.00;;;;;;4964074;28;20673;-61
2024/02/17 06:46:13;;;;;;;18.30;14.20;;;18.70;61.00;;;;;;4967721;28;20466;-60
2024/02/17 06:48:39;;;;;;;16.40;13.73;;;18.70;60.90;;;;;;4966458;28;20433;-60
2024/02/17 06:51:07;;;;;;;18.83;14.80;;;18.60;60.90;;;;;;4975242;28;20455;-60
2024/02/17 06:53:33;;;;;;;19.13;14.67;;;18.60;61.20;;;;;;4967520;28;20190;-60
2024/02/17 06:55:59;;;;;;;19.40;14.97;;;18.50;61.20;;;;;;4968887;28;20958;-59
2024/02/17 06:58:24;;;;;;;19.47;15.13;;;18.50;61.20;;;;;;4962383;28;20260;-60
2024/02/17 07:00:50;;;;;;;18.73;15.30;;;18.50;61.10;;;;;;4961202;28;20262;-60
2024/02/17 07:03:15;;;;;;;17.03;13.90;;;18.50;61.10;;;;;;4965567;28;20199;-60
2024/02/17 07:05:41;;;;;;;19.00;15.40;;;18.40;60.90;;;;;;4967852;28;20207;-59
2024/02/17 07:08:08;;;;;;;17.40;15.00;;;18.40;61.00;;;;;;4967021;28;20553;-59
2024/02/17 07:10:35;;;;;;;19.73;16.10;;;18.30;60.80;;;;;;4964250;28;20435;-58
2024/02/17 07:13:02;;;;;;;20.07;15.83;;;18.20;61.00;;;;;;4971664;28;20465;-60
2024/02/17 07:15:28;;;;;;;19.60;15.50;;;18.20;61.20;;;;;;4968169;28;20434;-60
2024/02/17 07:17:55;;;;;;;20.00;15.37;;;18.20;61.20;;;;;;4963814;28;20458;-60
2024/02/17 07:20:20;;;;;;;17.33;14.40;;;18.20;61.00;;;;;;4968683;28;20215;-60
2024/02/17 07:22:46;;;;;;;21.70;16.23;;;18.20;60.90;;;;;;4966385;28;20913;-59
2024/02/17 07:25:11;;;;;;;18.70;14.87;;;18.30;60.90;;;;;;4967541;28;20233;-59
2024/02/17 07:27:37;;;;;;;18.40;13.80;;;18.30;60.50;;;;;;4966265;28;20199;-60
2024/02/17 07:30:04;;;;;;;19.30;14.30;;;18.30;60.80;;;;;;4975568;28;20702;-60
2024/02/17 07:32:30;;;;;;;17.60;14.17;;;18.30;61.00;;;;;;4965864;28;20184;-60
2024/02/17 07:34:55;;;;;;;17.70;13.70;;;18.50;61.00;;;;;;4967592;28;20423;-60
2024/02/17 07:37:21;;;;;;;17.97;14.27;;;18.60;60.50;;;;;;4965924;28;20473;-60
2024/02/17 07:39:46;;;;;;;18.47;15.97;;;18.80;60.00;;;;;;4967570;28;20187;-61
2024/02/17 07:42:12;;;;;;;15.90;12.33;;;19.00;59.50;;;;;;4966308;28;20222;-61
2024/02/17 07:44:42;;;;;;;15.33;13.10;;;19.10;59.20;;;;;;4967084;28;20215;-58
2024/02/17 07:47:07;;;;;;;15.30;13.40;;;19.40;58.80;;;;;;4962751;28;20207;-61
2024/02/17 07:49:33;;;;;;;15.77;12.80;;;19.60;58.40;;;;;;4966678;28;20500;-61
2024/02/17 07:51:59;;;;;;;17.00;13.60;;;19.80;57.60;;;;;;4965263;28;20207;-60
2024/02/17 07:54:24;;;;;;;17.63;13.57;;;19.90;57.40;;;;;;4961744;28;20204;-61
2024/02/17 07:56:50;;;;;;;16.50;13.40;;;20.10;57.30;;;;;;4962195;28;20530;-61
2024/02/17 07:59:16;;;;;;;16.20;13.60;;;20.20;56.90;;;;;;4963089;28;20298;-60
2024/02/17 08:01:42;;;;;;;13.87;12.20;;;20.30;56.70;;;;;;4959599;28;20211;-60
2024/02/17 08:04:07;;;;;;;15.50;12.67;;;20.40;56.40;;;;;;4960181;28;20260;-59
2024/02/17 08:06:33;;;;;;;17.37;13.47;;;20.40;56.00;;;;;;4965584;28;21009;-61
2024/02/17 08:08:58;;;;;;;16.93;13.80;;;20.50;56.10;;;;;;4964753;28;20212;-59
2024/02/17 08:11:24;;;;;;;16.40;13.20;;;20.40;55.80;;;;;;4961639;28;20188;-60
2024/02/17 08:13:50;;;;;;;17.13;13.83;;;20.40;56.00;;;;;;4967586;28;20191;-61
2024/02/17 08:16:15;;;;;;;16.30;13.60;;;20.40;56.00;;;;;;4969180;28;20207;-60
2024/02/17 08:18:42;;;;;;;16.13;13.30;;;20.30;55.90;;;;;;4969337;28;20229;-59
2024/02/17 08:21:09;;;;;;;18.53;14.10;;;20.30;56.20;;;;;;4971384;28;20218;-60
2024/02/17 08:23:34;;;;;;;16.53;14.10;;;20.20;56.70;;;;;;4969745;28;20427;-59
2024/02/17 08:26:00;;;;;;;17.10;14.20;;;20.20;56.70;;;;;;4970121;28;20447;-60
2024/02/17 08:28:27;;;;;;;15.70;13.47;;;20.10;56.90;;;;;;4968312;28;20542;-60
2024/02/17 08:30:53;;;;;;;14.33;12.70;;;20.10;57.10;;;;;;4968583;28;20423;-61
2024/02/17 08:33:18;;;;;;;15.00;12.50;;;20.00;57.30;;;;;;4971592;28;20484;-60
2024/02/17 08:35:49;;;;;;;15.17;13.57;;;19.90;57.10;;;;;;4970009;28;20241;-60
2024/02/17 08:38:16;;;;;;;17.43;12.73;;;19.70;57.30;;;;;;4969214;28;20662;-60
2024/02/17 08:40:42;;;;;;;15.97;13.60;;;19.60;57.50;;;;;;4969754;28;20514;-61
2024/02/17 08:43:08;;;;;;;19.30;14.33;;;19.50;57.50;;;;;;4969504;28;20506;-59
2024/02/17 08:45:34;;;;;;;14.30;12.63;;;19.50;57.70;;;;;;4969842;28;20211;-61
2024/02/17 08:48:00;;;;;;;16.03;13.53;;;19.50;57.70;;;;;;4988377;28;20189;-61
2024/02/17 08:50:26;;;;;;;17.60;14.67;;;19.50;57.80;;;;;;4967191;28;20437;-60
2024/02/17 08:52:51;;;;;;;15.37;13.77;;;19.40;58.00;;;;;;4977411;28;20547;-61
2024/02/17 08:55:17;;;;;;;14.30;11.70;;;19.30;57.60;;;;;;4969439;28;20202;-59
2024/02/17 08:57:42;;;;;;;15.17;13.10;;;19.30;57.80;;;;;;4968607;28;20337;-60
2024/02/17 09:00:09;;;;;;;15.93;12.70;;;19.30;57.90;;;;;;4969795;28;20183;-60
2024/02/17 09:02:35;;;;;;;14.70;12.77;;;19.30;58.20;;;;;;4968406;28;20211;-61
2024/02/17 09:05:03;;;;;;;11.67;10.47;;;19.40;58.10;;;;;;4967823;28;20446;-60
2024/02/17 09:07:29;;;;;;;11.30;10.20;;;19.30;57.50;;;;;;4968513;28;20630;-61
2024/02/17 09:09:55;;;;;;;10.07;8.83;;;19.20;57.60;;;;;;4969966;28;20502;-61
2024/02/17 09:12:21;;;;;;;10.90;9.80;;;19.10;57.40;;;;;;4968690;28;20191;-60
2024/02/17 09:14:47;;;;;;;11.80;10.03;;;19.20;57.60;;;;;;4969283;28;20241;-59
2024/02/17 09:17:14;;;;;;;13.13;10.77;;;19.20;57.60;;;;;;4968247;28;20439;-61
2024/02/17 09:19:40;;;;;;;16.40;9.37;;;19.20;57.90;;;;;;4969639;28;20443;-61
2024/02/17 09:22:05;;;;;;;10.80;8.30;;;19.30;57.60;;;;;;4967973;28;20470;-58
2024/02/17 09:24:31;;;;;;;14.37;10.33;;;19.30;57.20;;;;;;4969268;28;20496;-60
2024/02/17 09:27:00;;;;;;;10.67;9.57;;;19.40;57.20;;;;;;4968245;28;20199;-61
2024/02/17 09:29:27;;;;;;;11.93;9.93;;;19.50;57.40;;;;;;4969184;28;20207;-60
2024/02/17 09:31:52;;;;;;;14.43;9.77;;;19.50;57.50;;;;;;4978394;28;20477;-60
2024/02/17 09:34:18;;;;;;;10.67;9.50;;;19.50;57.30;;;;;;4968896;28;20459;-60
2024/02/17 09:36:43;;;;;;;10.70;9.67;;;19.50;57.30;;;;;;4966842;28;20211;-60
2024/02/17 09:39:10;;;;;;;10.67;8.83;;;19.50;57.50;;;;;;4974128;28;20280;-61
2024/02/17 09:41:36;;;;;;;11.13;10.13;;;19.30;56.90;;;;;;4968413;28;20231;-59
2024/02/17 09:44:02;;;;;;;12.47;10.17;;;19.00;56.70;;;;;;4968056;28;20782;-59
2024/02/17 09:46:28;;;;;;;11.47;10.27;;;18.80;57.50;;;;;;4968052;28;20466;-59
2024/02/17 09:48:58;;;;;;;11.13;9.87;;;18.90;57.50;;;;;;4966657;28;20449;-59
2024/02/17 09:51:24;;;;;;;12.87;10.40;;;18.90;57.50;;;;;;4967048;28;20187;-59
2024/02/17 09:53:52;;;;;;;13.53;10.50;;;18.80;57.80;;;;;;4966190;28;20917;-58
2024/02/17 09:56:18;;;;;;;14.70;10.20;;;18.90;57.70;;;;;;4994074;28;20498;-59
2024/02/17 09:58:44;;;;;;;12.23;9.93;;;18.80;57.30;;;;;;4975011;28;21034;-59
2024/02/17 10:01:11;;;;;;;11.43;9.17;;;18.70;57.50;;;;;;4971599;28;20693;-59
2024/02/17 10:03:40;;;;;;;13.00;10.73;;;18.70;57.80;;;;;;5000959;28;20203;-59
2024/02/17 10:06:13;;;;;;;10.90;9.77;;;18.80;58.00;;;;;;4984124;28;20473;-58
2024/02/17 10:08:39;;;;;;;17.37;11.07;;;18.90;58.20;;;;;;4992254;28;20453;-60
2024/02/17 10:11:11;;;;;;;11.03;9.90;;;18.90;57.70;;;;;;4998891;28;20544;-58
2024/02/17 10:13:41;;;;;;;13.90;9.80;;;18.90;57.50;;;;;;4974564;28;20435;-60
2024/02/17 10:16:17;;;;;;;11.50;9.13;;;18.90;57.80;;;;;;4980434;28;20811;-59
2024/02/17 10:18:47;;;;;;;10.27;9.23;;;19.10;58.10;;;;;;4990224;28;20426;-59
2024/02/17 10:21:13;;;;;;;11.47;8.60;;;19.10;57.00;;;;;;4968116;28;20474;-60
2024/02/17 10:23:39;;;;;;;12.13;8.63;;;19.10;57.40;;;;;;4972838;28;20429;-60
2024/02/17 10:26:06;;;;;;;11.17;9.93;;;19.10;56.50;;;;;;4986666;28;20207;-59
2024/02/17 10:28:32;;;;;;;11.60;10.43;;;19.30;57.00;;;;;;4979684;28;22068;-59
2024/02/17 10:31:00;;;;;;;9.60;8.60;;;19.50;56.80;;;;;;4970320;28;20454;-59
2024/02/17 10:33:27;;;;;;;9.67;8.60;;;19.60;56.40;;;;;;4966077;28;20422;-59
2024/02/17 10:35:54;;;;;;;9.60;8.60;;;19.70;56.70;;;;;;5005482;28;20454;-60
2024/02/17 10:38:20;;;;;;;9.93;9.00;;;19.90;57.20;;;;;;4993493;28;20438;-59
2024/02/17 10:40:46;;;;;;;10.77;9.77;;;20.20;56.90;;;;;;4999041;28;20453;-59
2024/02/17 10:43:11;;;;;;;12.73;11.50;;;20.30;55.90;;;;;;4967189;28;20427;-60
2024/02/17 10:45:37;;;;;;;12.67;11.40;;;20.30;55.00;;;;;;4965946;28;20566;-59
2024/02/17 10:48:05;;;;;;;12.70;9.93;;;20.30;54.70;;;;;;4978314;28;20219;-59
2024/02/17 10:50:34;;;;;;;11.67;10.37;;;20.40;54.20;;;;;;4978270;28;20298;-59
2024/02/17 10:53:09;;;;;;;15.00;11.13;;;20.40;54.20;;;;;;4972316;28;20435;-58
2024/02/17 10:55:38;;;;;;;11.63;10.43;;;20.40;54.10;;;;;;4982915;28;20431;-59
2024/02/17 10:58:10;;;;;;;13.10;10.07;;;20.30;53.50;;;;;;4976241;28;20435;-59
2024/02/17 11:00:43;;;;;;;14.87;10.63;;;20.20;53.40;;;;;;5012354;28;20439;-60
2024/02/17 11:03:10;;;;;;;14.47;10.47;;;20.20;53.10;;;;;;4977283;28;20439;-60
2024/02/17 11:05:39;;;;;;;10.07;9.10;;;20.20;53.70;;;;;;4968088;28;20431;-59
2024/02/17 11:08:05;;;;;;;11.07;9.83;;;20.20;53.70;;;;;;4967515;28;20453;-58
2024/02/17 11:10:31;;;;;;;10.90;8.60;;;20.00;54.10;;;;;;5011637;28;20818;-60
2024/02/17 11:12:59;;;;;;;8.90;8.00;;;20.10;54.20;;;;;;4966006;28;20858;-60
2024/02/17 11:15:26;;;;;;;10.37;8.70;;;20.10;54.20;;;;;;5002944;28;20447;-60
2024/02/17 11:18:01;;;;;;;8.60;7.80;;;20.30;53.90;;;;;;5010218;28;20950;-59
2024/02/17 11:20:27;;;;;;;10.07;9.07;;;20.40;54.00;;;;;;5044071;28;20433;-59
2024/02/17 11:22:56;;;;;;;9.60;7.60;;;20.40;52.40;;;;;;5042928;28;20545;-59
2024/02/17 11:25:33;;;;;;;9.83;8.90;;;20.40;52.40;;;;;;4995795;28;20867;-59
2024/02/17 11:28:00;;;;;;;11.70;10.50;;;20.60;54.10;;;;;;5041750;28;20481;-58
2024/02/17 11:30:26;;;;;;;12.67;11.37;;;20.60;54.40;;;;;;4999364;28;20429;-59
2024/02/17 11:33:04;;;;;;;13.17;10.43;;;20.80;53.30;;;;;;5016556;28;20414;-59
2024/02/17 11:35:30;;;;;;;18.57;12.57;;;20.90;53.40;;;;;;4968982;28;20187;-60
2024/02/17 11:37:57;;;;;;;13.37;10.67;;;20.90;53.00;;;;;;4975996;28;20497;-59
2024/02/17 11:40:24;;;;;;;13.70;10.63;;;20.90;52.50;;;;;;5007928;28;20447;-60
2024/02/17 11:42:54;;;;;;;12.77;10.43;;;20.70;52.60;;;;;;4976839;28;20501;-60
2024/02/17 11:45:20;;;;;;;11.20;10.00;;;20.70;52.80;;;;;;5037213;28;20496;-60
2024/02/17 11:47:45;;;;;;;11.20;9.13;;;20.70;53.80;;;;;;5008604;28;20460;-59
2024/02/17 11:50:12;;;;;;;10.67;8.87;;;20.70;54.30;;;;;;4970611;28;20443;-59
2024/02/17 11:52:41;;;;;;;10.63;8.00;;;20.80;52.70;;;;;;4985074;28;20218;-61
2024/02/17 11:55:11;;;;;;;8.13;7.30;;;20.90;53.00;;;;;;4988873;28;20445;-59
2024/02/17 11:57:39;;;;;;;8.37;7.50;;;21.00;52.30;;;;;;5013316;28;20489;-61
2024/02/17 12:00:11;;;;;;;8.90;8.10;;;21.30;52.00;;;;;;4968270;28;20438;-59
2024/02/17 12:02:48;;;;;;;8.77;7.97;;;21.40;50.00;;;;;;4992213;28;20501;-58
2024/02/17 12:05:15;;;;;;;7.07;6.00;;;21.50;49.40;;;;;;4957680;28;20455;-59
2024/02/17 12:07:41;;;;;;;6.13;5.17;;;21.60;49.40;;;;;;5012299;28;20956;-60
2024/02/17 12:10:08;;;;;;;6.67;5.33;;;21.70;48.70;;;;;;4973747;28;20442;-60
2024/02/17 12:12:39;;;;;;;7.90;5.23;;;21.80;49.20;;;;;;4963707;28;20241;-60
2024/02/17 12:15:12;;;;;;;6.60;5.80;;;22.10;50.40;;;;;;4965748;28;21136;-58
2024/02/17 12:17:43;;;;;;;5.97;5.27;;;22.30;48.70;;;;;;4968722;28;20792;-59
2024/02/17 12:20:16;;;;;;;6.33;5.73;;;22.20;48.00;;;;;;4972031;28;20419;-60
2024/02/17 12:22:46;;;;;;;5.83;5.10;;;22.40;47.80;;;;;;4964492;28;20828;-60
2024/02/17 12:25:16;;;;;;;8.90;5.00;;;22.60;47.40;;;;;;4962842;28;20469;-60
2024/02/17 12:27:45;;;;;;;6.13;4.17;;;22.70;47.10;;;;;;4968646;28;20454;-59
2024/02/17 12:30:13;;;;;;;6.97;4.73;;;22.70;46.10;;;;;;4966001;28;20434;-58
2024/02/17 12:32:39;;;;;;;5.03;4.53;;;22.60;45.70;;;;;;4965671;28;20450;-58
2024/02/17 12:35:14;;;;;;;5.20;3.60;;;22.60;45.50;;;;;;4967543;28;20948;-59